WA7ZVY-4 Weather Reports


Display with metric or nautical units.
time (UTC)temp
F
wind
direction
speed
MPH
gust
MPH
rain 1hr
in
rain 24hr
in
rain mn
in
humidity
%
barometer
mb
20240304092652 40 309 1.0 9.0 0.01 0.67 0.06 87 1015.0
20240304092145 40 288 4.0 9.0 0.01 0.67 0.06 87 1015.0
20240304091638 40 308 5.0 9.0 0.01 0.67 0.06 87 1014.9
20240304091131 40 0 0.0 7.0 0.01 0.67 0.06 87 1014.8
20240304090624 40 295 4.0 5.0 0.01 0.66 0.06 88 1014.7
20240304085611 40 317 4.0 10.0 0.00 0.66 0.06 88 1014.8
20240304085103 40 357 4.0 10.0 0.00 0.66 0.05 88 1014.6
20240304084556 40 306 9.0 10.0 0.00 0.66 0.05 88 1014.6
20240304083542 41 319 5.0 10.0 0.00 0.66 0.05 87 1014.5
20240304083035 41 324 2.0 4.0 0.00 0.66 0.05 87 1014.3
20240304082528 41 334 1.0 10.0 0.00 0.66 0.05 87 1014.3
20240304082021 42 289 4.0 10.0 0.00 0.66 0.05 87 1014.4
20240304081515 42 295 4.0 10.0 0.00 0.66 0.05 87 1014.4
20240304081007 42 277 9.0 10.0 0.00 0.66 0.05 87 1014.4
20240304080500 42 322 2.0 9.0 0.00 0.66 0.05 87 1014.4
20240304075953 42 280 5.0 9.0 0.00 0.66 0.05 87 1014.3
20240304075446 42 278 6.0 9.0 0.00 0.66 0.05 87 1014.3
20240304074939 42 282 2.0 8.0 0.00 0.66 0.05 86 1014.2
20240304074433 42 275 5.0 8.0 0.00 0.66 0.05 86 1014.2
20240304073925 42 247 5.0 7.0 0.00 0.66 0.05 86 1014.2
20240304073418 41 323 5.0 11.0 0.00 0.66 0.05 86 1014.3
20240304072911 41 261 5.0 11.0 0.00 0.66 0.05 86 1014.2
20240304072404 41 309 3.0 11.0 0.00 0.66 0.05 85 1014.2
20240304071857 41 277 5.0 11.0 0.00 0.66 0.05 85 1014.1
20240304071350 41 253 5.0 9.0 0.00 0.66 0.05 85 1014.1
20240304065829 41 263 5.0 8.0 0.00 0.67 0.05 85 1013.9
20240304065322 41 282 3.0 6.0 0.00 0.67 0.05 85 1013.9
20240304064814 41 282 4.0 9.0 0.00 0.67 0.05 86 1013.8
20240304064308 41 273 5.0 9.0 0.00 0.67 0.05 88 1013.8
20240304063800 41 326 6.0 9.0 0.00 0.67 0.05 89 1013.8
20240304063254 41 277 6.0 9.0 0.00 0.67 0.05 90 1013.7
20240304062747 41 253 2.0 9.0 0.00 0.67 0.05 91 1013.7
20240304062239 41 312 3.0 9.0 0.00 0.67 0.05 92 1013.7
20240304061733 41 294 1.0 7.0 0.00 0.67 0.05 93 1013.7
20240304061225 41 226 4.0 9.0 0.00 0.67 0.05 94 1013.7
20240304060719 41 0 0.0 9.0 0.00 0.67 0.05 94 1013.6
20240304060211 41 252 4.0 9.0 0.00 0.68 0.05 95 1013.5
20240304055704 40 277 6.0 9.0 0.00 0.68 0.05 96 1013.5
20240304055157 40 0 0.0 7.0 0.00 0.68 0.05 96 1013.5
20240304054650 40 0 0.0 7.0 0.00 0.68 0.05 97 1013.5
20240304054143 40 0 0.0 6.0 0.01 0.68 0.05 97 1013.5
20240304053636 40 0 0.0 6.0 0.01 0.68 0.05 97 1013.5
20240304053129 39 0 0.0 9.0 0.01 0.68 0.05 98 1013.4
20240304052622 39 0 0.0 9.0 0.01 0.68 0.05 98 1013.4
20240304052116 39 322 4.0 9.0 0.02 0.68 0.05 98 1013.4
20240304051101 38 0 0.0 0.0 0.02 0.68 0.05 97 1013.4
20240304050554 38 0 0.0 0.0 0.02 0.76 0.05 97 1013.4
20240304045540 39 0 0.0 0.0 0.02 0.76 0.05 97 1013.2
20240304045034 39 0 0.0 0.0 0.02 0.76 0.05 97 1013.2
20240304044526 39 0 0.0 0.0 0.01 0.76 0.05 96 1013.0
20240304044019 39 0 0.0 0.0 0.01 0.76 0.04 96 1013.0
20240304043512 39 0 0.0 0.0 0.02 0.76 0.04 96 1013.0
20240304043005 39 0 0.0 0.0 0.02 0.76 0.04 96 1013.0
20240304042458 39 0 0.0 6.0 0.02 0.76 0.04 96 1013.0
20240304041951 39 0 0.0 6.0 0.02 0.76 0.03 96 1013.0
20240304041444 39 70 5.0 6.0 0.02 0.76 0.03 95 1012.9
20240304040937 39 12 3.0 6.0 0.02 0.76 0.03 95 1012.7
20240304040430 39 0 0.0 0.0 0.02 0.78 0.03 95 1012.5
20240304035923 39 0 0.0 0.0 0.02 0.78 0.03 95 1012.4
20240304035416 40 65 1.0 6.0 0.02 0.78 0.03 94 1012.4
20240304034909 40 0 0.0 6.0 0.02 0.78 0.03 94 1012.6
20240304034402 40 11 0.0 6.0 0.02 0.78 0.03 93 1012.5
20240304033856 40 0 0.0 0.0 0.02 0.78 0.03 93 1012.4
20240304033349 40 0 0.0 0.0 0.01 0.78 0.03 93 1012.4
20240304032334 41 0 0.0 0.0 0.00 0.78 0.02 92 1012.2
20240304031827 41 0 0.0 0.0 0.00 0.78 0.02 92 1012.1
20240304031320 41 0 0.0 8.0 0.00 0.78 0.01 92 1012.0
20240304030813 41 291 3.0 8.0 0.00 0.78 0.01 92 1012.0
20240304030306 41 327 2.0 8.0 0.00 0.80 0.01 92 1011.8
20240304025759 41 351 3.0 7.0 0.00 0.80 0.01 92 1011.8
20240304025252 41 0 0.0 3.0 0.00 0.80 0.01 91 1011.7
20240304024745 41 0 0.0 3.0 0.00 0.80 0.01 92 1011.8
20240304024238 41 0 0.0 0.0 0.00 0.80 0.01 92 1011.8
20240304023731 41 0 0.0 0.0 0.00 0.80 0.01 91 1011.7
20240304023224 41 0 0.0 0.0 0.00 0.80 0.01 91 1011.7
20240304022717 41 0 0.0 3.0 0.00 0.80 0.01 91 1011.6
20240304022211 42 0 0.0 3.0 0.00 0.80 0.01 90 1011.7
20240304021703 42 0 0.0 3.0 0.00 0.80 0.01 90 1011.6
20240304021156 42 0 0.0 3.0 0.00 0.80 0.01 90 1011.6
20240304020649 42 0 0.0 0.0 0.00 0.80 0.01 90 1011.5
20240304020142 42 0 0.0 10.0 0.00 0.82 0.01 90 1011.5
20240304015635 42 292 3.0 10.0 0.00 0.82 0.01 89 1011.5
20240304015129 42 0 0.0 10.0 0.00 0.82 0.01 89 1011.5
20240304014621 43 267 5.0 10.0 0.00 0.82 0.01 89 1011.4
20240304014115 43 226 7.0 8.0 0.00 0.82 0.01 89 1011.4
20240304013100 42 322 5.0 10.0 0.00 0.82 0.01 89 1011.4
20240304012553 42 253 7.0 10.0 0.00 0.82 0.01 90 1011.3
20240304012046 42 285 8.0 10.0 0.00 0.82 0.01 91 1011.2
20240304011539 42 243 7.0 10.0 0.00 0.82 0.01 91 1011.2
20240304011032 43 302 4.0 10.0 0.00 0.82 0.01 92 1011.3
20240304010525 43 243 3.0 10.0 0.00 0.88 0.01 92 1011.2
20240304010018 43 275 6.0 9.0 0.00 0.88 0.01 93 1011.2
20240304005511 43 291 7.0 9.0 0.00 0.88 0.01 93 1011.1
20240304005004 43 310 2.0 6.0 0.00 0.88 0.01 93 1011.1
20240304004457 43 0 0.0 0.0 0.00 0.88 0.01 93 1011.1
20240304003950 43 0 0.0 6.0 0.00 0.88 0.01 92 1011.1
20240304003443 43 0 0.0 6.0 0.00 0.88 0.01 92 1011.1
20240304002936 43 0 0.0 6.0 0.00 0.88 0.01 92 1011.1
20240304002429 43 303 4.0 5.0 0.00 0.88 0.01 93 1011.2
20240304001922 43 323 2.0 5.0 0.00 0.88 0.01 93 1011.2
20240304001415 43 0 0.0 13.0 0.00 0.88 0.01 92 1011.2
20240304000909 43 310 3.0 13.0 0.00 0.88 0.01 92 1011.1
20240304000403 43 1 4.0 13.0 0.00 0.91 0.01 92 1011.2
20240303235854 44 281 9.0 13.0 0.00 0.91 0.88 93 1011.2
20240303235347 45 302 7.0 9.0 0.00 0.91 0.88 94 1011.0
20240303234840 45 256 6.0 7.0 0.00 0.91 0.88 95 1011.0
20240303234333 45 287 1.0 2.0 0.00 0.91 0.88 96 1011.0
20240303233826 45 259 2.0 10.0 0.00 0.91 0.88 97 1011.0
20240303233319 45 312 4.0 10.0 0.00 0.91 0.88 98 1011.1
20240303232812 45 287 5.0 10.0 0.00 0.91 0.88 98 1011.1
20240303232306 45 319 8.0 10.0 0.00 0.91 0.88 99 1011.1
20240303231758 45 336 2.0 5.0 0.00 0.91 0.88 99 1010.9
20240303231251 44 0 0.0 0.0 0.01 0.91 0.88 100 1010.9
20240303230744 44 0 0.0 0.0 0.01 0.91 0.88 100 1010.9
20240303230237 44 0 0.0 0.0 0.01 0.99 0.88 100 1010.9
20240303225730 43 0 0.0 7.0 0.01 0.99 0.88 100 1010.9
20240303225223 43 0 0.0 7.0 0.01 0.99 0.88 100 1010.8
20240303224716 43 99 1.0 7.0 0.01 0.99 0.88 100 1010.8
20240303224209 43 60 1.0 6.0 0.02 0.99 0.88 100 1010.8
20240303223702 43 0 0.0 0.0 0.02 0.99 0.88 100 1010.7
20240303222648 43 0 0.0 0.0 0.02 0.99 0.88 100 1010.6
20240303222141 42 0 0.0 0.0 0.02 0.99 0.88 100 1010.6
20240303221634 42 0 0.0 0.0 0.02 0.99 0.88 100 1010.7
20240303220620 42 0 0.0 4.0 0.02 0.99 0.87 100 1010.5
20240303220113 41 0 0.0 4.0 0.04 0.99 0.87 100 1010.4
20240303215606 41 0 0.0 4.0 0.05 0.99 0.87 100 1010.4
20240303215059 41 40 2.0 4.0 0.05 0.99 0.87 100 1010.5
20240303214045 41 168 1.0 5.0 0.05 0.99 0.86 100 1010.5
20240303213538 41 0 0.0 5.0 0.07 0.99 0.86 100 1010.5
20240303212524 40 0 0.0 0.0 0.08 0.99 0.86 100 1010.6
20240303212017 40 0 0.0 0.0 0.08 0.99 0.86 100 1010.6
20240303211510 40 0 0.0 3.0 0.09 0.99 0.86 100 1010.6
20240303211003 40 0 0.0 3.0 0.09 0.99 0.85 100 1010.6
20240303210456 41 0 0.0 3.0 0.07 0.94 0.85 100 1010.7
20240303205949 41 235 1.0 2.0 0.07 0.94 0.84 100 1010.7
20240303205442 41 221 2.0 9.0 0.06 0.94 0.83 100 1010.4
20240303204935 41 0 0.0 9.0 0.06 0.94 0.83 100 1010.4
20240303204428 41 0 0.0 9.0 0.06 0.94 0.82 100 1010.3
20240303203921 41 135 4.0 9.0 0.06 0.94 0.82 100 1010.3
20240303203414 41 168 1.0 11.0 0.04 0.94 0.80 100 1010.4
20240303202907 41 204 5.0 11.0 0.04 0.94 0.79 100 1010.4
20240303202400 41 172 4.0 11.0 0.03 0.94 0.79 100 1010.4
20240303201854 41 208 8.0 12.0 0.03 0.94 0.79 100 1010.3
20240303201347 42 197 9.0 12.0 0.02 0.94 0.78 100 1010.4
20240303200839 42 183 2.0 12.0 0.02 0.94 0.77 100 1010.4
20240303200332 42 201 9.0 12.0 0.03 0.96 0.76 100 1010.4
20240303195825 42 198 7.0 12.0 0.03 0.96 0.76 100 1010.5
20240303195318 43 155 6.0 12.0 0.05 0.96 0.76 100 1010.5
20240303194811 42 224 4.0 9.0 0.05 0.96 0.76 100 1010.4
20240303194305 41 198 5.0 9.0 0.07 0.96 0.75 100 1010.5
20240303193757 40 173 4.0 9.0 0.07 0.96 0.75 100 1010.3
20240303193250 40 159 6.0 8.0 0.11 0.96 0.75 100 1010.4
20240303192743 39 156 4.0 8.0 0.11 0.96 0.75 100 1010.4
20240303191729 38 126 3.0 10.0 0.16 0.96 0.75 100 1010.4
20240303191222 38 142 3.0 10.0 0.18 0.96 0.75 100 1010.4
20240303190715 38 228 5.0 10.0 0.18 0.96 0.74 100 1010.4
20240303190208 38 203 8.0 8.0 0.17 0.86 0.74 100 1010.4
20240303185701 38 183 4.0 12.0 0.17 0.86 0.73 100 1010.3
20240303185154 37 175 6.0 12.0 0.15 0.86 0.72 100 1010.2
20240303184647 37 140 4.0 12.0 0.15 0.86 0.71 100 1010.1
20240303184140 37 126 6.0 12.0 0.13 0.86 0.70 100 1010.2
20240303183126 38 0 0.0 10.0 0.09 0.86 0.66 100 1010.1
20240303182619 38 210 8.0 10.0 0.04 0.86 0.64 100 1010.1
20240303182112 38 161 5.0 9.0 0.04 0.86 0.61 100 1010.1
20240303181605 38 198 7.0 9.0 0.02 0.86 0.59 100 1010.2
20240303180551 38 142 4.0 9.0 0.02 0.86 0.56 100 1010.0
20240303180044 38 168 5.0 9.0 0.02 0.86 0.56 100 1009.9
20240303175536 38 175 9.0 9.0 0.02 0.86 0.56 100 1009.8
20240303175029 38 144 4.0 9.0 0.02 0.86 0.56 100 1009.6
20240303174523 38 182 4.0 8.0 0.02 0.86 0.56 100 1009.5
20240303174016 38 144 6.0 7.0 0.02 0.86 0.55 100 1009.6
20240303173508 37 138 6.0 12.0 0.02 0.86 0.55 100 1009.4
20240303173001 37 135 4.0 12.0 0.02 0.86 0.55 100 1009.3
20240303172454 37 151 3.0 12.0 0.03 0.86 0.55 100 1009.3
20240303171947 37 172 10.0 12.0 0.03 0.86 0.55 100 1009.4
20240303171441 37 96 6.0 9.0 0.03 0.86 0.55 100 1009.3
20240303170933 37 142 5.0 9.0 0.03 0.86 0.54 100 1009.4
20240303170426 37 112 3.0 9.0 0.04 0.83 0.54 100 1009.4
20240303165919 37 141 4.0 10.0 0.04 0.83 0.54 100 1009.4
20240303165412 37 152 4.0 10.0 0.05 0.83 0.54 100 1009.4
20240303164905 37 182 7.0 10.0 0.05 0.83 0.54 100 1009.4
20240303164358 37 180 5.0 10.0 0.04 0.83 0.54 100 1009.4
20240303163851 37 169 6.0 12.0 0.04 0.83 0.53 100 1009.4
20240303163345 37 170 6.0 12.0 0.05 0.83 0.53 100 1009.4
20240303162837 37 162 5.0 12.0 0.05 0.83 0.53 100 1009.2
20240303162330 37 166 8.0 12.0 0.04 0.83 0.53 100 1009.2
20240303161823 37 158 6.0 13.0 0.04 0.83 0.52 100 1009.1
20240303161317 37 138 5.0 13.0 0.04 0.83 0.52 100 1008.9
20240303160809 37 158 6.0 13.0 0.04 0.83 0.51 100 1008.9
20240303160303 37 197 8.0 13.0 0.04 0.79 0.51 100 1008.8
20240303155755 37 137 9.0 11.0 0.04 0.79 0.50 100 1008.8
20240303155248 37 162 7.0 9.0 0.05 0.79 0.50 100 1008.7
20240303154742 37 148 2.0 4.0 0.05 0.79 0.49 100 1008.5
20240303154235 36 142 2.0 7.0 0.07 0.79 0.49 100 1008.5
20240303153727 36 148 4.0 7.0 0.07 0.79 0.49 100 1008.5
20240303152713 36 37 5.0 7.0 0.09 0.79 0.48 100 1008.1
20240303152207 36 0 0.0 7.0 0.11 0.79 0.48 100 1008.2
20240303151659 36 0 0.0 7.0 0.11 0.79 0.48 100 1008.3
20240303151153 36 0 0.0 7.0 0.10 0.79 0.47 100 1008.3
20240303150645 36 0 0.0 6.0 0.10 0.79 0.47 100 1008.4
20240303150138 36 63 3.0 3.0 0.09 0.69 0.46 100 1008.4
20240303145631 36 0 0.0 2.0 0.09 0.69 0.46 100 1008.5
20240303145124 36 0 0.0 7.0 0.07 0.69 0.45 100 1008.5
20240303144617 37 0 0.0 7.0 0.05 0.69 0.44 100 1008.3
20240303144110 37 194 3.0 7.0 0.05 0.69 0.43 100 1008.4
20240303143603 37 162 3.0 7.0 0.02 0.69 0.42 100 1008.2
20240303143056 37 187 4.0 6.0 0.02 0.69 0.40 100 1008.1
20240303142549 37 151 7.0 11.0 0.00 0.69 0.39 100 1007.9
20240303142042 37 148 8.0 11.0 0.00 0.69 0.38 100 1007.8
20240303141535 37 151 7.0 11.0 0.00 0.69 0.37 100 1007.8
20240303141029 37 147 8.0 11.0 0.00 0.69 0.37 100 1007.6
20240303140521 37 148 4.0 9.0 0.00 0.69 0.37 100 1007.6
20240303140014 37 135 6.0 9.0 0.00 0.69 0.37 100 1007.6
20240303135507 37 166 7.0 9.0 0.00 0.69 0.37 100 1007.6
20240303135000 37 133 6.0 9.0 0.00 0.69 0.37 100 1007.5
20240303134453 37 144 7.0 9.0 0.01 0.69 0.37 100 1007.5
20240303133947 37 84 6.0 9.0 0.01 0.69 0.37 100 1007.5
20240303133439 37 128 6.0 7.0 0.01 0.69 0.37 100 1007.6
20240303132932 37 138 6.0 11.0 0.01 0.69 0.37 100 1007.6
20240303131918 37 81 7.0 11.0 0.01 0.69 0.37 100 1007.5
20240303131411 37 138 10.0 13.0 0.01 0.69 0.37 100 1007.4
20240303130904 37 98 6.0 13.0 0.01 0.69 0.37 100 1007.3
20240303130357 37 141 8.0 13.0 0.01 0.68 0.37 100 1007.1
20240303125850 37 130 10.0 13.0 0.01 0.68 0.37 100 1007.1
20240303125344 37 131 8.0 10.0 0.01 0.68 0.37 100 1007.0
20240303124839 37 112 8.0 10.0 0.01 0.68 0.37 100 1007.0
20240303124329 37 86 7.0 10.0 0.00 0.68 0.36 100 1007.0
20240303123822 37 103 6.0 9.0 0.00 0.68 0.36 100 1007.0
20240303123315 37 133 4.0 9.0 0.00 0.68 0.36 100 1007.0
20240303122808 37 145 8.0 9.0 0.00 0.68 0.36 100 1007.0
20240303121754 37 155 6.0 9.0 0.00 0.68 0.36 100 1007.1
20240303121247 37 155 6.0 7.0 0.00 0.68 0.36 100 1006.8
20240303120740 37 168 3.0 7.0 0.00 0.68 0.36 100 1007.1
20240303115726 36 95 1.0 5.0 0.01 0.68 0.36 100 1006.7
20240303115219 36 105 1.0 8.0 0.01 0.68 0.36 100 1006.7
20240303114712 36 110 7.0 8.0 0.01 0.68 0.36 100 1006.5
20240303114205 36 151 5.0 8.0 0.02 0.68 0.36 100 1006.6
20240303113658 36 133 5.0 8.0 0.02 0.68 0.36 100 1006.7
20240303113151 36 120 5.0 8.0 0.03 0.68 0.36 100 1006.7
20240303112644 36 128 5.0 7.0 0.03 0.68 0.36 100 1006.6
20240303112137 36 117 3.0 11.0 0.04 0.68 0.36 100 1006.6
20240303111630 36 151 6.0 11.0 0.04 0.68 0.36 100 1006.6
20240303111122 36 0 4.0 11.0 0.05 0.68 0.36 100 1006.6
20240303110616 36 163 11.0 11.0 0.06 0.64 0.36 100 1006.5
20240303110109 36 116 6.0 10.0 0.06 0.64 0.35 100 1006.6
20240303105601 36 98 7.0 10.0 0.07 0.64 0.35 100 1006.5
20240303105054 36 144 8.0 10.0 0.07 0.64 0.35 100 1006.4
20240303104550 36 145 4.0 8.0 0.06 0.64 0.35 100 1006.7
20240303104041 36 145 5.0 8.0 0.06 0.64 0.34 100 1006.6
20240303103534 36 151 4.0 6.0 0.06 0.64 0.34 100 1006.5
20240303103026 36 154 3.0 5.0 0.06 0.64 0.33 100 1006.4
20240303102520 36 112 6.0 12.0 0.05 0.64 0.33 100 1006.3
20240303102013 36 89 6.0 12.0 0.05 0.64 0.33 100 1006.7
20240303101506 37 119 1.0 12.0 0.05 0.64 0.32 100 1007.1
20240303100958 37 152 6.0 12.0 0.05 0.64 0.31 100 1007.0
20240303100452 37 162 3.0 6.0 0.03 0.59 0.31 100 1007.1
20240303095945 37 133 1.0 3.0 0.03 0.59 0.30 100 1007.0
20240303095438 37 0 0.0 0.0 0.02 0.59 0.28 100 1007.0
20240303094931 37 0 0.0 9.0 0.02 0.59 0.28 100 1006.9
20240303094424 37 0 0.0 9.0 0.02 0.59 0.28 100 1006.7
20240303093917 37 173 1.0 9.0 0.02 0.59 0.28 100 1006.6
20240303093410 37 176 5.0 7.0 0.01 0.59 0.28 100 1006.4